sensor_id;sensor_type;location;lat;lon;timestamp;P1;durP1;ratioP1;P2;durP2;ratioP2
63738;SDS011;68816;45.558;10.070;2023-05-07T00:00:23;27.48;;;23.95;;
63738;SDS011;68816;45.558;10.070;2023-05-07T00:02:49;27.75;;;23.33;;
63738;SDS011;68816;45.558;10.070;2023-05-07T00:05:14;28.40;;;23.85;;
63738;SDS011;68816;45.558;10.070;2023-05-07T00:07:41;27.52;;;23.80;;
63738;SDS011;68816;45.558;10.070;2023-05-07T00:10:07;32.65;;;25.35;;
63738;SDS011;68816;45.558;10.070;2023-05-07T00:12:33;26.60;;;23.02;;
63738;SDS011;68816;45.558;10.070;2023-05-07T00:15:02;29.88;;;24.67;;
63738;SDS011;68816;45.558;10.070;2023-05-07T00:17:28;27.48;;;23.88;;
63738;SDS011;68816;45.558;10.070;2023-05-07T00:19:54;26.95;;;23.08;;
63738;SDS011;68816;45.558;10.070;2023-05-07T00:22:19;26.63;;;23.08;;
63738;SDS011;68816;45.558;10.070;2023-05-07T00:24:46;26.50;;;23.10;;
63738;SDS011;68816;45.558;10.070;2023-05-07T00:27:11;28.00;;;22.98;;
63738;SDS011;68816;45.558;10.070;2023-05-07T00:29:37;30.75;;;23.40;;
63738;SDS011;68816;45.558;10.070;2023-05-07T00:32:02;27.33;;;23.38;;
63738;SDS011;68816;45.558;10.070;2023-05-07T00:34:28;27.25;;;22.75;;
63738;SDS011;68816;45.558;10.070;2023-05-07T00:36:53;29.45;;;22.95;;
63738;SDS011;68816;45.558;10.070;2023-05-07T00:39:19;26.17;;;22.13;;
63738;SDS011;68816;45.558;10.070;2023-05-07T00:41:44;27.52;;;23.27;;
63738;SDS011;68816;45.558;10.070;2023-05-07T00:44:11;26.50;;;22.65;;
63738;SDS011;68816;45.558;10.070;2023-05-07T00:46:36;27.27;;;22.35;;
63738;SDS011;68816;45.558;10.070;2023-05-07T00:49:02;26.88;;;21.65;;
63738;SDS011;68816;45.558;10.070;2023-05-07T00:51:28;27.58;;;21.58;;
63738;SDS011;68816;45.558;10.070;2023-05-07T00:53:54;24.17;;;21.55;;
63738;SDS011;68816;45.558;10.070;2023-05-07T00:56:22;22.88;;;20.45;;
63738;SDS011;68816;45.558;10.070;2023-05-07T00:58:49;26.30;;;21.15;;
63738;SDS011;68816;45.558;10.070;2023-05-07T01:01:14;25.75;;;20.30;;
63738;SDS011;68816;45.558;10.070;2023-05-07T01:03:42;26.92;;;20.02;;
63738;SDS011;68816;45.558;10.070;2023-05-07T01:06:08;23.33;;;18.60;;
63738;SDS011;68816;45.558;10.070;2023-05-07T01:08:37;20.38;;;17.08;;
63738;SDS011;68816;45.558;10.070;2023-05-07T01:11:05;19.20;;;15.65;;
63738;SDS011;68816;45.558;10.070;2023-05-07T01:13:31;15.82;;;13.52;;
63738;SDS011;68816;45.558;10.070;2023-05-07T01:15:58;15.45;;;12.18;;
63738;SDS011;68816;45.558;10.070;2023-05-07T01:18:24;13.93;;;11.48;;
63738;SDS011;68816;45.558;10.070;2023-05-07T01:20:51;13.30;;;11.90;;
63738;SDS011;68816;45.558;10.070;2023-05-07T01:23:16;13.20;;;11.23;;
63738;SDS011;68816;45.558;10.070;2023-05-07T01:25:43;15.20;;;11.93;;
63738;SDS011;68816;45.558;10.070;2023-05-07T01:28:08;15.55;;;13.23;;
63738;SDS011;68816;45.558;10.070;2023-05-07T01:30:34;17.45;;;14.63;;
63738;SDS011;68816;45.558;10.070;2023-05-07T01:33:03;15.13;;;13.55;;
63738;SDS011;68816;45.558;10.070;2023-05-07T01:35:36;8.98;;;7.72;;
63738;SDS011;68816;45.558;10.070;2023-05-07T01:38:08;8.30;;;7.45;;
63738;SDS011;68816;45.558;10.070;2023-05-07T01:40:34;8.30;;;7.50;;
63738;SDS011;68816;45.558;10.070;2023-05-07T01:43:00;9.00;;;8.10;;
63738;SDS011;68816;45.558;10.070;2023-05-07T01:45:27;8.50;;;7.03;;
63738;SDS011;68816;45.558;10.070;2023-05-07T01:47:53;6.65;;;6.00;;
63738;SDS011;68816;45.558;10.070;2023-05-07T01:50:20;6.57;;;5.30;;
63738;SDS011;68816;45.558;10.070;2023-05-07T01:52:46;6.53;;;5.00;;
63738;SDS011;68816;45.558;10.070;2023-05-07T01:55:12;5.07;;;4.28;;
63738;SDS011;68816;45.558;10.070;2023-05-07T01:57:38;7.57;;;4.10;;
63738;SDS011;68816;45.558;10.070;2023-05-07T02:00:04;6.72;;;4.50;;
63738;SDS011;68816;45.558;10.070;2023-05-07T02:02:30;4.00;;;3.60;;
63738;SDS011;68816;45.558;10.070;2023-05-07T02:04:56;4.28;;;3.58;;
63738;SDS011;68816;45.558;10.070;2023-05-07T02:07:21;4.53;;;2.63;;
63738;SDS011;68816;45.558;10.070;2023-05-07T02:09:47;8.02;;;2.65;;
63738;SDS011;68816;45.558;10.070;2023-05-07T02:12:12;3.10;;;2.58;;
63738;SDS011;68816;45.558;10.070;2023-05-07T02:14:38;3.35;;;2.90;;
63738;SDS011;68816;45.558;10.070;2023-05-07T02:17:03;6.65;;;2.90;;
63738;SDS011;68816;45.558;10.070;2023-05-07T02:19:29;3.15;;;2.75;;
63738;SDS011;68816;45.558;10.070;2023-05-07T02:21:54;14.65;;;3.58;;
63738;SDS011;68816;45.558;10.070;2023-05-07T02:24:20;7.07;;;3.17;;
63738;SDS011;68816;45.558;10.070;2023-05-07T02:26:46;5.75;;;3.20;;
63738;SDS011;68816;45.558;10.070;2023-05-07T02:29:11;5.88;;;2.88;;
63738;SDS011;68816;45.558;10.070;2023-05-07T02:31:37;5.95;;;3.33;;
63738;SDS011;68816;45.558;10.070;2023-05-07T02:34:02;7.75;;;3.30;;
63738;SDS011;68816;45.558;10.070;2023-05-07T02:36:28;8.05;;;3.40;;
63738;SDS011;68816;45.558;10.070;2023-05-07T02:38:54;4.30;;;3.00;;
63738;SDS011;68816;45.558;10.070;2023-05-07T02:41:20;3.30;;;2.90;;
63738;SDS011;68816;45.558;10.070;2023-05-07T02:43:45;6.78;;;3.03;;
63738;SDS011;68816;45.558;10.070;2023-05-07T02:46:11;3.78;;;3.30;;
63738;SDS011;68816;45.558;10.070;2023-05-07T02:48:37;3.75;;;3.35;;
63738;SDS011;68816;45.558;10.070;2023-05-07T02:51:02;3.92;;;3.35;;
63738;SDS011;68816;45.558;10.070;2023-05-07T02:53:28;3.90;;;3.47;;
63738;SDS011;68816;45.558;10.070;2023-05-07T02:55:58;3.88;;;3.30;;
63738;SDS011;68816;45.558;10.070;2023-05-07T02:58:25;4.00;;;2.75;;
63738;SDS011;68816;45.558;10.070;2023-05-07T03:00:51;2.95;;;2.72;;
63738;SDS011;68816;45.558;10.070;2023-05-07T03:03:17;4.38;;;3.33;;
63738;SDS011;68816;45.558;10.070;2023-05-07T03:05:43;3.80;;;2.88;;
63738;SDS011;68816;45.558;10.070;2023-05-07T03:08:10;3.25;;;2.75;;
63738;SDS011;68816;45.558;10.070;2023-05-07T03:10:36;5.97;;;2.85;;
63738;SDS011;68816;45.558;10.070;2023-05-07T03:13:02;3.83;;;3.10;;
63738;SDS011;68816;45.558;10.070;2023-05-07T03:15:28;4.35;;;3.10;;
63738;SDS011;68816;45.558;10.070;2023-05-07T03:17:53;4.30;;;2.60;;
63738;SDS011;68816;45.558;10.070;2023-05-07T03:20:18;5.38;;;2.70;;
63738;SDS011;68816;45.558;10.070;2023-05-07T03:22:44;3.67;;;2.53;;
63738;SDS011;68816;45.558;10.070;2023-05-07T03:25:10;2.83;;;2.53;;
63738;SDS011;68816;45.558;10.070;2023-05-07T03:27:35;2.67;;;2.40;;
63738;SDS011;68816;45.558;10.070;2023-05-07T03:30:01;2.40;;;2.03;;
63738;SDS011;68816;45.558;10.070;2023-05-07T03:32:27;3.03;;;2.20;;
63738;SDS011;68816;45.558;10.070;2023-05-07T03:34:52;2.85;;;1.90;;
63738;SDS011;68816;45.558;10.070;2023-05-07T03:37:18;3.90;;;2.00;;
63738;SDS011;68816;45.558;10.070;2023-05-07T03:39:43;2.33;;;1.80;;
63738;SDS011;68816;45.558;10.070;2023-05-07T03:42:09;1.85;;;1.65;;
63738;SDS011;68816;45.558;10.070;2023-05-07T03:44:34;2.50;;;1.80;;
63738;SDS011;68816;45.558;10.070;2023-05-07T03:47:01;2.10;;;1.70;;
63738;SDS011;68816;45.558;10.070;2023-05-07T03:49:27;2.53;;;2.05;;
63738;SDS011;68816;45.558;10.070;2023-05-07T03:51:53;2.28;;;1.95;;
63738;SDS011;68816;45.558;10.070;2023-05-07T03:54:24;4.20;;;2.00;;
63738;SDS011;68816;45.558;10.070;2023-05-07T03:56:51;2.75;;;2.30;;
63738;SDS011;68816;45.558;10.070;2023-05-07T03:59:18;4.03;;;2.10;;
63738;SDS011;68816;45.558;10.070;2023-05-07T04:01:43;4.00;;;2.05;;
63738;SDS011;68816;45.558;10.070;2023-05-07T04:04:08;2.22;;;1.77;;
63738;SDS011;68816;45.558;10.070;2023-05-07T04:06:34;1.95;;;1.80;;
63738;SDS011;68816;45.558;10.070;2023-05-07T04:08:59;4.55;;;2.20;;
63738;SDS011;68816;45.558;10.070;2023-05-07T04:11:25;2.53;;;1.85;;
63738;SDS011;68816;45.558;10.070;2023-05-07T04:13:50;2.30;;;1.90;;
63738;SDS011;68816;45.558;10.070;2023-05-07T04:16:16;2.60;;;1.80;;
63738;SDS011;68816;45.558;10.070;2023-05-07T04:18:41;2.10;;;1.90;;
63738;SDS011;68816;45.558;10.070;2023-05-07T04:21:16;2.20;;;2.00;;
63738;SDS011;68816;45.558;10.070;2023-05-07T04:23:42;2.85;;;1.75;;
63738;SDS011;68816;45.558;10.070;2023-05-07T04:26:08;2.80;;;1.80;;
63738;SDS011;68816;45.558;10.070;2023-05-07T04:28:34;3.45;;;1.63;;
63738;SDS011;68816;45.558;10.070;2023-05-07T04:31:00;3.08;;;1.52;;
63738;SDS011;68816;45.558;10.070;2023-05-07T04:33:26;3.83;;;1.60;;
63738;SDS011;68816;45.558;10.070;2023-05-07T04:35:51;2.08;;;1.27;;
63738;SDS011;68816;45.558;10.070;2023-05-07T04:38:17;2.22;;;1.50;;
63738;SDS011;68816;45.558;10.070;2023-05-07T04:40:43;2.28;;;1.48;;
63738;SDS011;68816;45.558;10.070;2023-05-07T04:43:09;1.92;;;1.40;;
63738;SDS011;68816;45.558;10.070;2023-05-07T04:45:35;1.88;;;1.52;;
63738;SDS011;68816;45.558;10.070;2023-05-07T04:48:01;4.78;;;1.63;;
63738;SDS011;68816;45.558;10.070;2023-05-07T04:50:26;3.00;;;1.70;;
63738;SDS011;68816;45.558;10.070;2023-05-07T04:52:52;1.95;;;1.50;;
63738;SDS011;68816;45.558;10.070;2023-05-07T04:55:17;1.73;;;1.63;;
63738;SDS011;68816;45.558;10.070;2023-05-07T04:57:43;1.80;;;1.70;;
63738;SDS011;68816;45.558;10.070;2023-05-07T05:00:08;3.05;;;1.70;;
63738;SDS011;68816;45.558;10.070;2023-05-07T05:02:35;3.00;;;1.80;;
63738;SDS011;68816;45.558;10.070;2023-05-07T05:05:01;1.65;;;1.55;;
63738;SDS011;68816;45.558;10.070;2023-05-07T05:07:29;2.42;;;1.60;;
63738;SDS011;68816;45.558;10.070;2023-05-07T05:09:54;5.07;;;1.80;;
63738;SDS011;68816;45.558;10.070;2023-05-07T05:12:20;2.42;;;1.60;;
63738;SDS011;68816;45.558;10.070;2023-05-07T05:14:46;3.13;;;1.88;;
63738;SDS011;68816;45.558;10.070;2023-05-07T05:17:12;1.70;;;1.60;;
63738;SDS011;68816;45.558;10.070;2023-05-07T05:19:37;1.65;;;1.55;;
63738;SDS011;68816;45.558;10.070;2023-05-07T05:22:03;1.63;;;1.40;;
63738;SDS011;68816;45.558;10.070;2023-05-07T05:24:29;2.30;;;1.33;;
63738;SDS011;68816;45.558;10.070;2023-05-07T05:26:55;1.90;;;1.38;;
63738;SDS011;68816;45.558;10.070;2023-05-07T05:29:21;1.55;;;1.42;;
63738;SDS011;68816;45.558;10.070;2023-05-07T05:31:46;3.05;;;1.63;;
63738;SDS011;68816;45.558;10.070;2023-05-07T05:34:12;1.60;;;1.45;;
63738;SDS011;68816;45.558;10.070;2023-05-07T05:36:37;3.47;;;1.80;;
63738;SDS011;68816;45.558;10.070;2023-05-07T05:39:03;1.60;;;1.50;;
63738;SDS011;68816;45.558;10.070;2023-05-07T05:41:29;2.55;;;1.67;;
63738;SDS011;68816;45.558;10.070;2023-05-07T05:43:54;2.60;;;1.70;;
63738;SDS011;68816;45.558;10.070;2023-05-07T05:46:20;2.63;;;1.63;;
63738;SDS011;68816;45.558;10.070;2023-05-07T05:48:45;1.38;;;1.20;;
63738;SDS011;68816;45.558;10.070;2023-05-07T05:51:11;1.40;;;1.30;;
63738;SDS011;68816;45.558;10.070;2023-05-07T05:53:37;4.85;;;1.65;;
63738;SDS011;68816;45.558;10.070;2023-05-07T05:56:03;1.95;;;1.60;;
63738;SDS011;68816;45.558;10.070;2023-05-07T05:58:29;3.53;;;1.50;;
63738;SDS011;68816;45.558;10.070;2023-05-07T06:00:54;2.10;;;1.48;;
63738;SDS011;68816;45.558;10.070;2023-05-07T06:03:21;2.88;;;1.65;;
63738;SDS011;68816;45.558;10.070;2023-05-07T06:05:46;1.85;;;1.52;;
63738;SDS011;68816;45.558;10.070;2023-05-07T06:08:12;1.73;;;1.35;;
63738;SDS011;68816;45.558;10.070;2023-05-07T06:10:38;2.63;;;1.50;;
63738;SDS011;68816;45.558;10.070;2023-05-07T06:13:03;2.92;;;1.30;;
63738;SDS011;68816;45.558;10.070;2023-05-07T06:15:28;2.72;;;2.00;;
63738;SDS011;68816;45.558;10.070;2023-05-07T06:17:54;2.20;;;2.00;;
63738;SDS011;68816;45.558;10.070;2023-05-07T06:20:22;1.65;;;1.55;;
63738;SDS011;68816;45.558;10.070;2023-05-07T06:22:48;1.90;;;1.80;;
63738;SDS011;68816;45.558;10.070;2023-05-07T06:25:13;2.20;;;1.50;;
63738;SDS011;68816;45.558;10.070;2023-05-07T06:27:39;3.70;;;1.60;;
63738;SDS011;68816;45.558;10.070;2023-05-07T06:30:05;1.90;;;1.40;;
63738;SDS011;68816;45.558;10.070;2023-05-07T06:32:31;2.35;;;1.65;;
63738;SDS011;68816;45.558;10.070;2023-05-07T06:34:57;5.00;;;1.80;;
63738;SDS011;68816;45.558;10.070;2023-05-07T06:37:22;4.40;;;2.13;;
63738;SDS011;68816;45.558;10.070;2023-05-07T06:39:48;2.67;;;2.00;;
63738;SDS011;68816;45.558;10.070;2023-05-07T06:42:13;4.55;;;2.20;;
63738;SDS011;68816;45.558;10.070;2023-05-07T06:44:40;4.60;;;2.47;;
63738;SDS011;68816;45.558;10.070;2023-05-07T06:47:05;3.10;;;2.80;;
63738;SDS011;68816;45.558;10.070;2023-05-07T06:49:31;4.30;;;2.47;;
63738;SDS011;68816;45.558;10.070;2023-05-07T06:51:56;3.13;;;2.15;;
63738;SDS011;68816;45.558;10.070;2023-05-07T06:54:22;2.50;;;2.30;;
63738;SDS011;68816;45.558;10.070;2023-05-07T06:56:48;2.80;;;2.40;;
63738;SDS011;68816;45.558;10.070;2023-05-07T06:59:13;2.90;;;2.60;;
63738;SDS011;68816;45.558;10.070;2023-05-07T07:01:39;3.58;;;3.22;;
63738;SDS011;68816;45.558;10.070;2023-05-07T07:04:04;2.70;;;2.50;;
63738;SDS011;68816;45.558;10.070;2023-05-07T07:06:30;3.55;;;2.70;;
63738;SDS011;68816;45.558;10.070;2023-05-07T07:08:56;4.15;;;2.80;;
63738;SDS011;68816;45.558;10.070;2023-05-07T07:11:22;4.30;;;3.17;;
63738;SDS011;68816;45.558;10.070;2023-05-07T07:13:48;4.50;;;3.78;;
63738;SDS011;68816;45.558;10.070;2023-05-07T07:16:13;4.30;;;3.10;;
63738;SDS011;68816;45.558;10.070;2023-05-07T07:18:39;4.50;;;3.05;;
63738;SDS011;68816;45.558;10.070;2023-05-07T07:21:05;5.88;;;3.28;;
63738;SDS011;68816;45.558;10.070;2023-05-07T07:23:30;5.28;;;3.40;;
63738;SDS011;68816;45.558;10.070;2023-05-07T07:25:57;6.90;;;4.10;;
63738;SDS011;68816;45.558;10.070;2023-05-07T07:28:22;4.78;;;4.10;;
63738;SDS011;68816;45.558;10.070;2023-05-07T07:30:48;12.55;;;7.60;;
63738;SDS011;68816;45.558;10.070;2023-05-07T07:33:13;10.48;;;6.82;;
63738;SDS011;68816;45.558;10.070;2023-05-07T07:35:39;8.65;;;6.72;;
63738;SDS011;68816;45.558;10.070;2023-05-07T07:38:05;14.27;;;10.20;;
63738;SDS011;68816;45.558;10.070;2023-05-07T07:40:30;15.60;;;12.15;;
63738;SDS011;68816;45.558;10.070;2023-05-07T07:42:56;24.38;;;14.07;;
63738;SDS011;68816;45.558;10.070;2023-05-07T07:45:22;15.65;;;12.75;;
63738;SDS011;68816;45.558;10.070;2023-05-07T07:47:47;13.90;;;12.18;;
63738;SDS011;68816;45.558;10.070;2023-05-07T07:50:13;15.75;;;13.20;;
63738;SDS011;68816;45.558;10.070;2023-05-07T07:52:38;20.02;;;13.60;;
63738;SDS011;68816;45.558;10.070;2023-05-07T07:55:04;19.45;;;14.25;;
63738;SDS011;68816;45.558;10.070;2023-05-07T07:57:30;18.92;;;14.00;;
63738;SDS011;68816;45.558;10.070;2023-05-07T07:59:55;17.77;;;13.68;;
63738;SDS011;68816;45.558;10.070;2023-05-07T08:02:21;17.20;;;13.75;;
63738;SDS011;68816;45.558;10.070;2023-05-07T08:04:46;20.00;;;15.43;;
63738;SDS011;68816;45.558;10.070;2023-05-07T08:07:12;22.10;;;17.17;;
63738;SDS011;68816;45.558;10.070;2023-05-07T08:09:38;25.38;;;16.85;;
63738;SDS011;68816;45.558;10.070;2023-05-07T08:12:04;23.77;;;16.20;;
63738;SDS011;68816;45.558;10.070;2023-05-07T08:14:31;21.17;;;16.70;;
63738;SDS011;68816;45.558;10.070;2023-05-07T08:16:56;23.45;;;17.42;;
63738;SDS011;68816;45.558;10.070;2023-05-07T08:19:22;23.95;;;18.15;;
63738;SDS011;68816;45.558;10.070;2023-05-07T08:21:47;29.42;;;21.23;;
63738;SDS011;68816;45.558;10.070;2023-05-07T08:24:14;27.92;;;21.15;;
63738;SDS011;68816;45.558;10.070;2023-05-07T08:26:39;26.77;;;18.80;;
63738;SDS011;68816;45.558;10.070;2023-05-07T08:29:05;23.70;;;19.60;;
63738;SDS011;68816;45.558;10.070;2023-05-07T08:31:31;23.63;;;17.60;;
63738;SDS011;68816;45.558;10.070;2023-05-07T08:33:57;22.60;;;14.18;;
63738;SDS011;68816;45.558;10.070;2023-05-07T08:36:22;19.83;;;17.30;;
63738;SDS011;68816;45.558;10.070;2023-05-07T08:38:48;22.10;;;17.13;;
63738;SDS011;68816;45.558;10.070;2023-05-07T08:41:14;18.65;;;16.55;;
63738;SDS011;68816;45.558;10.070;2023-05-07T08:43:40;18.15;;;16.10;;
63738;SDS011;68816;45.558;10.070;2023-05-07T08:46:06;19.13;;;14.90;;
63738;SDS011;68816;45.558;10.070;2023-05-07T08:48:35;18.92;;;16.27;;
63738;SDS011;68816;45.558;10.070;2023-05-07T08:51:01;18.63;;;15.82;;
63738;SDS011;68816;45.558;10.070;2023-05-07T08:53:26;16.10;;;13.48;;
63738;SDS011;68816;45.558;10.070;2023-05-07T08:55:52;14.75;;;12.57;;
63738;SDS011;68816;45.558;10.070;2023-05-07T08:58:18;14.70;;;12.27;;
63738;SDS011;68816;45.558;10.070;2023-05-07T09:00:44;14.70;;;13.10;;
63738;SDS011;68816;45.558;10.070;2023-05-07T09:03:11;14.23;;;12.77;;
63738;SDS011;68816;45.558;10.070;2023-05-07T09:05:39;14.05;;;12.65;;
63738;SDS011;68816;45.558;10.070;2023-05-07T09:08:05;15.38;;;13.05;;
63738;SDS011;68816;45.558;10.070;2023-05-07T09:10:35;14.15;;;12.38;;
63738;SDS011;68816;45.558;10.070;2023-05-07T09:13:00;14.98;;;13.30;;
63738;SDS011;68816;45.558;10.070;2023-05-07T09:15:28;13.98;;;11.52;;
63738;SDS011;68816;45.558;10.070;2023-05-07T09:17:53;15.68;;;12.95;;
63738;SDS011;68816;45.558;10.070;2023-05-07T09:20:19;16.02;;;12.93;;
63738;SDS011;68816;45.558;10.070;2023-05-07T09:22:46;15.25;;;11.98;;
63738;SDS011;68816;45.558;10.070;2023-05-07T09:25:11;16.95;;;13.02;;
63738;SDS011;68816;45.558;10.070;2023-05-07T09:27:37;13.80;;;12.00;;
63738;SDS011;68816;45.558;10.070;2023-05-07T09:30:03;21.30;;;16.10;;
63738;SDS011;68816;45.558;10.070;2023-05-07T09:32:30;14.73;;;12.23;;
63738;SDS011;68816;45.558;10.070;2023-05-07T09:34:59;14.65;;;12.30;;
63738;SDS011;68816;45.558;10.070;2023-05-07T09:37:25;15.07;;;13.15;;
63738;SDS011;68816;45.558;10.070;2023-05-07T09:39:50;17.55;;;13.48;;
63738;SDS011;68816;45.558;10.070;2023-05-07T09:42:16;13.68;;;12.00;;
63738;SDS011;68816;45.558;10.070;2023-05-07T09:44:48;12.18;;;10.85;;
63738;SDS011;68816;45.558;10.070;2023-05-07T09:47:15;12.40;;;10.77;;
63738;SDS011;68816;45.558;10.070;2023-05-07T09:49:44;14.07;;;12.40;;
63738;SDS011;68816;45.558;10.070;2023-05-07T09:52:13;16.02;;;13.20;;
63738;SDS011;68816;45.558;10.070;2023-05-07T09:54:39;19.50;;;13.82;;
63738;SDS011;68816;45.558;10.070;2023-05-07T09:57:10;13.13;;;11.73;;
63738;SDS011;68816;45.558;10.070;2023-05-07T09:59:37;14.73;;;11.10;;
63738;SDS011;68816;45.558;10.070;2023-05-07T10:02:03;11.70;;;9.93;;
63738;SDS011;68816;45.558;10.070;2023-05-07T10:04:29;15.52;;;10.95;;
63738;SDS011;68816;45.558;10.070;2023-05-07T10:06:57;13.15;;;11.80;;
63738;SDS011;68816;45.558;10.070;2023-05-07T10:09:25;11.25;;;9.77;;
63738;SDS011;68816;45.558;10.070;2023-05-07T10:11:51;12.02;;;10.10;;
63738;SDS011;68816;45.558;10.070;2023-05-07T10:14:19;12.48;;;11.18;;
63738;SDS011;68816;45.558;10.070;2023-05-07T10:16:45;12.85;;;10.55;;
63738;SDS011;68816;45.558;10.070;2023-05-07T10:19:13;11.85;;;9.75;;
63738;SDS011;68816;45.558;10.070;2023-05-07T10:21:43;15.23;;;13.43;;
63738;SDS011;68816;45.558;10.070;2023-05-07T10:27:12;13.35;;;11.30;;
63738;SDS011;68816;45.558;10.070;2023-05-07T10:32:49;14.15;;;11.63;;
63738;SDS011;68816;45.558;10.070;2023-05-07T10:35:22;13.05;;;11.75;;
63738;SDS011;68816;45.558;10.070;2023-05-07T10:37:51;12.30;;;11.00;;
63738;SDS011;68816;45.558;10.070;2023-05-07T10:40:17;13.68;;;10.45;;
63738;SDS011;68816;45.558;10.070;2023-05-07T10:42:57;13.30;;;11.73;;
63738;SDS011;68816;45.558;10.070;2023-05-07T10:45:28;12.07;;;10.38;;
63738;SDS011;68816;45.558;10.070;2023-05-07T10:48:07;13.85;;;10.77;;
63738;SDS011;68816;45.558;10.070;2023-05-07T10:50:37;13.35;;;11.23;;
63738;SDS011;68816;45.558;10.070;2023-05-07T10:58:26;12.23;;;10.90;;
63738;SDS011;68816;45.558;10.070;2023-05-07T11:00:56;12.13;;;10.23;;
63738;SDS011;68816;45.558;10.070;2023-05-07T11:03:23;11.70;;;10.50;;
63738;SDS011;68816;45.558;10.070;2023-05-07T11:09:11;11.70;;;9.57;;
63738;SDS011;68816;45.558;10.070;2023-05-07T11:11:49;12.15;;;10.85;;
63738;SDS011;68816;45.558;10.070;2023-05-07T11:14:42;14.23;;;11.82;;
63738;SDS011;68816;45.558;10.070;2023-05-07T11:17:09;11.85;;;10.50;;
63738;SDS011;68816;45.558;10.070;2023-05-07T11:19:51;12.55;;;11.25;;
63738;SDS011;68816;45.558;10.070;2023-05-07T11:24:55;13.35;;;11.95;;
63738;SDS011;68816;45.558;10.070;2023-05-07T11:27:28;15.00;;;10.60;;
63738;SDS011;68816;45.558;10.070;2023-05-07T11:29:54;13.98;;;10.65;;
63738;SDS011;68816;45.558;10.070;2023-05-07T11:32:22;17.65;;;13.40;;
63738;SDS011;68816;45.558;10.070;2023-05-07T11:34:52;14.50;;;12.38;;
63738;SDS011;68816;45.558;10.070;2023-05-07T11:37:18;13.95;;;12.48;;
63738;SDS011;68816;45.558;10.070;2023-05-07T11:39:44;13.25;;;11.23;;
63738;SDS011;68816;45.558;10.070;2023-05-07T11:42:28;16.75;;;13.07;;
63738;SDS011;68816;45.558;10.070;2023-05-07T11:45:04;13.20;;;10.90;;
63738;SDS011;68816;45.558;10.070;2023-05-07T11:47:31;11.45;;;10.05;;
63738;SDS011;68816;45.558;10.070;2023-05-07T11:49:57;14.20;;;10.57;;
63738;SDS011;68816;45.558;10.070;2023-05-07T11:52:28;11.18;;;9.85;;
63738;SDS011;68816;45.558;10.070;2023-05-07T11:54:55;13.23;;;10.18;;
63738;SDS011;68816;45.558;10.070;2023-05-07T11:57:22;10.60;;;9.50;;
63738;SDS011;68816;45.558;10.070;2023-05-07T11:59:52;9.40;;;8.40;;
63738;SDS011;68816;45.558;10.070;2023-05-07T12:04:47;10.30;;;8.90;;
63738;SDS011;68816;45.558;10.070;2023-05-07T12:07:13;10.05;;;8.85;;
63738;SDS011;68816;45.558;10.070;2023-05-07T12:09:42;10.10;;;9.10;;
63738;SDS011;68816;45.558;10.070;2023-05-07T12:12:08;12.48;;;11.13;;
63738;SDS011;68816;45.558;10.070;2023-05-07T12:14:37;12.48;;;9.48;;
63738;SDS011;68816;45.558;10.070;2023-05-07T12:17:10;12.02;;;9.38;;
63738;SDS011;68816;45.558;10.070;2023-05-07T12:19:37;11.30;;;9.75;;
63738;SDS011;68816;45.558;10.070;2023-05-07T12:22:03;10.07;;;9.05;;
63738;SDS011;68816;45.558;10.070;2023-05-07T12:24:42;11.70;;;8.98;;
63738;SDS011;68816;45.558;10.070;2023-05-07T12:27:11;10.65;;;9.55;;
63738;SDS011;68816;45.558;10.070;2023-05-07T12:29:38;10.50;;;9.18;;
63738;SDS011;68816;45.558;10.070;2023-05-07T12:32:05;10.15;;;8.82;;
63738;SDS011;68816;45.558;10.070;2023-05-07T12:34:32;10.65;;;8.57;;
63738;SDS011;68816;45.558;10.070;2023-05-07T12:36:57;9.77;;;8.15;;
63738;SDS011;68816;45.558;10.070;2023-05-07T12:39:28;9.30;;;7.75;;
63738;SDS011;68816;45.558;10.070;2023-05-07T12:41:57;9.27;;;7.50;;
63738;SDS011;68816;45.558;10.070;2023-05-07T12:44:24;8.68;;;7.75;;
63738;SDS011;68816;45.558;10.070;2023-05-07T12:46:51;10.25;;;7.63;;
63738;SDS011;68816;45.558;10.070;2023-05-07T12:49:16;10.57;;;6.03;;
63738;SDS011;68816;45.558;10.070;2023-05-07T12:51:46;7.43;;;6.20;;
63738;SDS011;68816;45.558;10.070;2023-05-07T12:54:13;6.53;;;5.82;;
63738;SDS011;68816;45.558;10.070;2023-05-07T12:56:59;8.23;;;7.03;;
63738;SDS011;68816;45.558;10.070;2023-05-07T12:59:39;7.28;;;6.50;;
63738;SDS011;68816;45.558;10.070;2023-05-07T13:02:06;7.65;;;5.80;;
63738;SDS011;68816;45.558;10.070;2023-05-07T13:04:32;7.25;;;6.03;;
63738;SDS011;68816;45.558;10.070;2023-05-07T13:06:58;6.82;;;4.90;;
63738;SDS011;68816;45.558;10.070;2023-05-07T13:09:24;6.15;;;4.53;;
63738;SDS011;68816;45.558;10.070;2023-05-07T13:11:50;5.95;;;4.10;;
63738;SDS011;68816;45.558;10.070;2023-05-07T13:14:15;4.97;;;4.40;;
63738;SDS011;68816;45.558;10.070;2023-05-07T13:16:41;8.43;;;6.10;;
63738;SDS011;68816;45.558;10.070;2023-05-07T13:19:07;7.43;;;6.05;;
63738;SDS011;68816;45.558;10.070;2023-05-07T13:21:32;6.60;;;6.00;;
63738;SDS011;68816;45.558;10.070;2023-05-07T13:23:58;7.45;;;6.35;;
63738;SDS011;68816;45.558;10.070;2023-05-07T13:26:24;5.95;;;5.07;;
63738;SDS011;68816;45.558;10.070;2023-05-07T13:28:50;4.30;;;3.90;;
63738;SDS011;68816;45.558;10.070;2023-05-07T13:31:16;6.43;;;5.80;;
63738;SDS011;68816;45.558;10.070;2023-05-07T13:33:42;6.38;;;5.50;;
63738;SDS011;68816;45.558;10.070;2023-05-07T13:36:08;6.93;;;6.07;;
63738;SDS011;68816;45.558;10.070;2023-05-07T13:38:34;7.90;;;5.80;;
63738;SDS011;68816;45.558;10.070;2023-05-07T13:41:00;5.55;;;5.00;;
63738;SDS011;68816;45.558;10.070;2023-05-07T13:43:25;5.18;;;4.60;;
63738;SDS011;68816;45.558;10.070;2023-05-07T13:45:51;5.15;;;4.35;;
63738;SDS011;68816;45.558;10.070;2023-05-07T13:48:16;7.28;;;5.22;;
63738;SDS011;68816;45.558;10.070;2023-05-07T13:50:41;6.97;;;5.75;;
63738;SDS011;68816;45.558;10.070;2023-05-07T13:53:07;6.88;;;5.20;;
63738;SDS011;68816;45.558;10.070;2023-05-07T13:55:33;5.82;;;4.57;;
63738;SDS011;68816;45.558;10.070;2023-05-07T13:58:00;6.35;;;5.45;;
63738;SDS011;68816;45.558;10.070;2023-05-07T14:00:28;5.85;;;4.55;;
63738;SDS011;68816;45.558;10.070;2023-05-07T14:02:54;8.27;;;5.95;;
63738;SDS011;68816;45.558;10.070;2023-05-07T14:05:20;6.28;;;5.07;;
63738;SDS011;68816;45.558;10.070;2023-05-07T14:07:48;5.78;;;5.18;;
63738;SDS011;68816;45.558;10.070;2023-05-07T14:10:16;5.50;;;5.00;;
63738;SDS011;68816;45.558;10.070;2023-05-07T14:12:43;6.75;;;6.05;;
63738;SDS011;68816;45.558;10.070;2023-05-07T14:15:09;6.50;;;5.57;;
63738;SDS011;68816;45.558;10.070;2023-05-07T14:17:35;5.35;;;4.78;;
63738;SDS011;68816;45.558;10.070;2023-05-07T14:20:01;8.70;;;4.72;;
63738;SDS011;68816;45.558;10.070;2023-05-07T14:22:27;6.68;;;5.05;;
63738;SDS011;68816;45.558;10.070;2023-05-07T14:24:52;6.82;;;5.13;;
63738;SDS011;68816;45.558;10.070;2023-05-07T14:27:18;6.88;;;4.80;;
63738;SDS011;68816;45.558;10.070;2023-05-07T14:29:43;5.07;;;3.80;;
63738;SDS011;68816;45.558;10.070;2023-05-07T14:32:10;4.65;;;4.10;;
63738;SDS011;68816;45.558;10.070;2023-05-07T14:34:36;3.53;;;3.22;;
63738;SDS011;68816;45.558;10.070;2023-05-07T14:37:01;5.90;;;4.88;;
63738;SDS011;68816;45.558;10.070;2023-05-07T14:39:27;4.50;;;4.10;;